Remus, Michigan
Current Conditions -  °F | °C
As of 3:15 PM on Thursday 29 Jan 2015 (Local Time) from KRQB Reporting Station
Overcast Overcast  
Wind Chill: 22°   Ceiling: 1100
Heat Index: 31°   Visibility: 10mi
Dew Point: 29°   Wind: 13mph
Humidity: 92%   Direction: 340°NNW
Pressure: 29.81"   Gusts: 17mph
Location:  43.6°N, 85.14°W
Report Text: KRQB 292015Z AUTO 34011G15KT 10SM OVC011 00/M01 A2981 RMK AO2 T10031015
Loading
Personal Weather Stations






























Interactive Weather Map New forecast layout! Learn more

10-Day Weather Forecast

Advertisements
Track Severe Weather on mobile